sensor_id;sensor_type;location;lat;lon;timestamp;P1;durP1;ratioP1;P2;durP2;ratioP2
32639;SDS011;19049;52.524;11.468;2024-03-02T00:00:18;34.43;;;18.97;;
32639;SDS011;19049;52.524;11.468;2024-03-02T00:02:46;30.43;;;17.80;;
32639;SDS011;19049;52.524;11.468;2024-03-02T00:05:15;30.40;;;16.73;;
32639;SDS011;19049;52.524;11.468;2024-03-02T00:07:42;27.73;;;15.80;;
32639;SDS011;19049;52.524;11.468;2024-03-02T00:10:09;29.60;;;16.00;;
32639;SDS011;19049;52.524;11.468;2024-03-02T00:12:36;25.40;;;14.90;;
32639;SDS011;19049;52.524;11.468;2024-03-02T00:15:25;25.50;;;13.67;;
32639;SDS011;19049;52.524;11.468;2024-03-02T00:18:13;23.70;;;13.37;;
32639;SDS011;19049;52.524;11.468;2024-03-02T00:20:43;25.00;;;13.90;;
32639;SDS011;19049;52.524;11.468;2024-03-02T00:23:10;24.50;;;14.93;;
32639;SDS011;19049;52.524;11.468;2024-03-02T00:25:41;28.63;;;15.53;;
32639;SDS011;19049;52.524;11.468;2024-03-02T00:28:17;24.57;;;14.70;;
32639;SDS011;19049;52.524;11.468;2024-03-02T00:33:36;21.87;;;13.33;;
32639;SDS011;19049;52.524;11.468;2024-03-02T00:36:09;27.97;;;14.40;;
32639;SDS011;19049;52.524;11.468;2024-03-02T00:38:44;25.63;;;14.90;;
32639;SDS011;19049;52.524;11.468;2024-03-02T00:41:15;28.63;;;15.93;;
32639;SDS011;19049;52.524;11.468;2024-03-02T00:44:00;29.43;;;16.60;;
32639;SDS011;19049;52.524;11.468;2024-03-02T00:46:34;30.27;;;16.43;;
32639;SDS011;19049;52.524;11.468;2024-03-02T00:49:01;31.40;;;15.23;;
32639;SDS011;19049;52.524;11.468;2024-03-02T00:51:29;32.87;;;17.23;;
32639;SDS011;19049;52.524;11.468;2024-03-02T00:54:00;34.93;;;18.73;;
32639;SDS011;19049;52.524;11.468;2024-03-02T00:56:29;36.77;;;19.77;;
32639;SDS011;19049;52.524;11.468;2024-03-02T00:58:55;34.63;;;19.03;;
32639;SDS011;19049;52.524;11.468;2024-03-02T01:01:20;33.57;;;17.90;;
32639;SDS011;19049;52.524;11.468;2024-03-02T01:03:47;30.83;;;17.20;;
32639;SDS011;19049;52.524;11.468;2024-03-02T01:06:13;27.13;;;15.37;;
32639;SDS011;19049;52.524;11.468;2024-03-02T01:08:39;29.47;;;16.30;;
32639;SDS011;19049;52.524;11.468;2024-03-02T01:11:05;27.03;;;15.43;;
32639;SDS011;19049;52.524;11.468;2024-03-02T01:13:31;37.33;;;19.33;;
32639;SDS011;19049;52.524;11.468;2024-03-02T01:15:57;34.37;;;19.53;;
32639;SDS011;19049;52.524;11.468;2024-03-02T01:18:23;36.30;;;19.40;;
32639;SDS011;19049;52.524;11.468;2024-03-02T01:20:49;34.00;;;18.67;;
32639;SDS011;19049;52.524;11.468;2024-03-02T01:23:16;34.20;;;18.73;;
32639;SDS011;19049;52.524;11.468;2024-03-02T01:25:44;31.90;;;17.60;;
32639;SDS011;19049;52.524;11.468;2024-03-02T01:28:10;31.47;;;17.70;;
32639;SDS011;19049;52.524;11.468;2024-03-02T01:30:35;33.63;;;17.97;;
32639;SDS011;19049;52.524;11.468;2024-03-02T01:33:01;36.73;;;18.17;;
32639;SDS011;19049;52.524;11.468;2024-03-02T01:35:27;32.63;;;18.43;;
32639;SDS011;19049;52.524;11.468;2024-03-02T01:37:53;33.37;;;18.03;;
32639;SDS011;19049;52.524;11.468;2024-03-02T01:40:18;39.53;;;20.20;;
32639;SDS011;19049;52.524;11.468;2024-03-02T01:42:45;31.70;;;18.10;;
32639;SDS011;19049;52.524;11.468;2024-03-02T01:45:10;30.73;;;17.43;;
32639;SDS011;19049;52.524;11.468;2024-03-02T01:47:36;28.73;;;17.70;;
32639;SDS011;19049;52.524;11.468;2024-03-02T01:50:02;29.57;;;16.60;;
32639;SDS011;19049;52.524;11.468;2024-03-02T01:52:27;27.73;;;15.93;;
32639;SDS011;19049;52.524;11.468;2024-03-02T01:54:53;29.10;;;15.90;;
32639;SDS011;19049;52.524;11.468;2024-03-02T01:57:18;29.13;;;16.63;;
32639;SDS011;19049;52.524;11.468;2024-03-02T01:59:45;28.63;;;16.40;;
32639;SDS011;19049;52.524;11.468;2024-03-02T02:02:12;27.20;;;15.77;;
32639;SDS011;19049;52.524;11.468;2024-03-02T02:04:39;31.13;;;17.07;;
32639;SDS011;19049;52.524;11.468;2024-03-02T02:07:04;30.93;;;16.93;;
32639;SDS011;19049;52.524;11.468;2024-03-02T02:09:31;28.50;;;15.93;;
32639;SDS011;19049;52.524;11.468;2024-03-02T02:11:57;26.33;;;15.90;;
32639;SDS011;19049;52.524;11.468;2024-03-02T02:14:22;27.53;;;14.90;;
32639;SDS011;19049;52.524;11.468;2024-03-02T02:16:48;23.97;;;14.07;;
32639;SDS011;19049;52.524;11.468;2024-03-02T02:19:14;25.60;;;13.83;;
32639;SDS011;19049;52.524;11.468;2024-03-02T02:21:42;28.23;;;15.67;;
32639;SDS011;19049;52.524;11.468;2024-03-02T02:24:08;29.00;;;16.10;;
32639;SDS011;19049;52.524;11.468;2024-03-02T02:26:33;29.37;;;16.00;;
32639;SDS011;19049;52.524;11.468;2024-03-02T02:28:59;26.90;;;14.87;;
32639;SDS011;19049;52.524;11.468;2024-03-02T02:31:24;27.70;;;14.93;;
32639;SDS011;19049;52.524;11.468;2024-03-02T02:33:50;25.43;;;14.27;;
32639;SDS011;19049;52.524;11.468;2024-03-02T02:36:15;28.20;;;14.63;;
32639;SDS011;19049;52.524;11.468;2024-03-02T02:38:42;25.60;;;13.77;;
32639;SDS011;19049;52.524;11.468;2024-03-02T02:41:12;23.73;;;13.27;;
32639;SDS011;19049;52.524;11.468;2024-03-02T02:43:38;25.17;;;14.07;;
32639;SDS011;19049;52.524;11.468;2024-03-02T02:46:05;27.83;;;16.33;;
32639;SDS011;19049;52.524;11.468;2024-03-02T02:48:30;28.87;;;15.63;;
32639;SDS011;19049;52.524;11.468;2024-03-02T02:50:56;27.10;;;15.70;;
32639;SDS011;19049;52.524;11.468;2024-03-02T02:53:22;30.00;;;17.33;;
32639;SDS011;19049;52.524;11.468;2024-03-02T02:55:47;30.70;;;17.37;;
32639;SDS011;19049;52.524;11.468;2024-03-02T02:58:13;34.50;;;18.27;;
32639;SDS011;19049;52.524;11.468;2024-03-02T03:00:39;28.10;;;16.40;;
32639;SDS011;19049;52.524;11.468;2024-03-02T03:03:05;27.57;;;16.83;;
32639;SDS011;19049;52.524;11.468;2024-03-02T03:05:31;30.47;;;16.57;;
32639;SDS011;19049;52.524;11.468;2024-03-02T03:07:57;30.37;;;17.33;;
32639;SDS011;19049;52.524;11.468;2024-03-02T03:10:22;29.43;;;17.10;;
32639;SDS011;19049;52.524;11.468;2024-03-02T03:12:50;27.87;;;15.97;;
32639;SDS011;19049;52.524;11.468;2024-03-02T03:15:16;28.80;;;16.57;;
32639;SDS011;19049;52.524;11.468;2024-03-02T03:17:42;27.70;;;16.17;;
32639;SDS011;19049;52.524;11.468;2024-03-02T03:20:08;28.13;;;16.33;;
32639;SDS011;19049;52.524;11.468;2024-03-02T03:22:37;29.03;;;16.00;;
32639;SDS011;19049;52.524;11.468;2024-03-02T03:25:03;31.97;;;17.37;;
32639;SDS011;19049;52.524;11.468;2024-03-02T03:27:29;43.47;;;24.00;;
32639;SDS011;19049;52.524;11.468;2024-03-02T03:29:55;44.80;;;23.93;;
32639;SDS011;19049;52.524;11.468;2024-03-02T03:32:20;39.97;;;23.63;;
32639;SDS011;19049;52.524;11.468;2024-03-02T03:34:46;37.00;;;20.07;;
32639;SDS011;19049;52.524;11.468;2024-03-02T03:37:13;32.53;;;19.53;;
32639;SDS011;19049;52.524;11.468;2024-03-02T03:39:39;32.07;;;17.53;;
32639;SDS011;19049;52.524;11.468;2024-03-02T03:42:05;36.13;;;18.30;;
32639;SDS011;19049;52.524;11.468;2024-03-02T03:44:31;39.87;;;22.50;;
32639;SDS011;19049;52.524;11.468;2024-03-02T03:46:57;36.77;;;19.17;;
32639;SDS011;19049;52.524;11.468;2024-03-02T03:49:22;34.97;;;19.33;;
32639;SDS011;19049;52.524;11.468;2024-03-02T03:51:48;31.33;;;19.43;;
32639;SDS011;19049;52.524;11.468;2024-03-02T03:54:14;29.33;;;17.43;;
32639;SDS011;19049;52.524;11.468;2024-03-02T03:56:40;29.83;;;16.93;;
32639;SDS011;19049;52.524;11.468;2024-03-02T03:59:05;28.43;;;16.73;;
32639;SDS011;19049;52.524;11.468;2024-03-02T04:01:31;27.90;;;16.40;;
32639;SDS011;19049;52.524;11.468;2024-03-02T04:03:57;33.13;;;16.73;;
32639;SDS011;19049;52.524;11.468;2024-03-02T04:06:23;28.20;;;16.27;;
32639;SDS011;19049;52.524;11.468;2024-03-02T04:08:48;28.40;;;16.57;;
32639;SDS011;19049;52.524;11.468;2024-03-02T04:11:14;26.37;;;15.77;;
32639;SDS011;19049;52.524;11.468;2024-03-02T04:13:40;31.77;;;17.07;;
32639;SDS011;19049;52.524;11.468;2024-03-02T04:16:05;29.37;;;16.80;;
32639;SDS011;19049;52.524;11.468;2024-03-02T04:18:31;34.03;;;19.97;;
32639;SDS011;19049;52.524;11.468;2024-03-02T04:21:00;32.77;;;19.00;;
32639;SDS011;19049;52.524;11.468;2024-03-02T04:23:28;33.13;;;18.80;;
32639;SDS011;19049;52.524;11.468;2024-03-02T04:25:54;38.07;;;21.50;;
32639;SDS011;19049;52.524;11.468;2024-03-02T04:28:19;45.60;;;25.03;;
32639;SDS011;19049;52.524;11.468;2024-03-02T04:30:45;47.63;;;24.20;;
32639;SDS011;19049;52.524;11.468;2024-03-02T04:33:10;43.20;;;25.17;;
32639;SDS011;19049;52.524;11.468;2024-03-02T04:35:36;39.60;;;22.83;;
32639;SDS011;19049;52.524;11.468;2024-03-02T04:38:02;35.27;;;21.23;;
32639;SDS011;19049;52.524;11.468;2024-03-02T04:40:28;32.83;;;18.97;;
32639;SDS011;19049;52.524;11.468;2024-03-02T04:42:53;28.93;;;17.13;;
32639;SDS011;19049;52.524;11.468;2024-03-02T04:45:19;38.17;;;21.13;;
32639;SDS011;19049;52.524;11.468;2024-03-02T04:47:44;35.37;;;18.97;;
32639;SDS011;19049;52.524;11.468;2024-03-02T04:50:10;33.53;;;18.80;;
32639;SDS011;19049;52.524;11.468;2024-03-02T04:52:36;32.40;;;18.33;;
32639;SDS011;19049;52.524;11.468;2024-03-02T04:55:02;32.10;;;18.97;;
32639;SDS011;19049;52.524;11.468;2024-03-02T04:57:34;31.03;;;18.23;;
32639;SDS011;19049;52.524;11.468;2024-03-02T05:00:00;29.67;;;17.50;;
32639;SDS011;19049;52.524;11.468;2024-03-02T05:02:26;27.07;;;16.67;;
32639;SDS011;19049;52.524;11.468;2024-03-02T05:04:52;26.00;;;16.13;;
32639;SDS011;19049;52.524;11.468;2024-03-02T05:07:18;27.77;;;16.30;;
32639;SDS011;19049;52.524;11.468;2024-03-02T05:09:43;28.07;;;16.40;;
32639;SDS011;19049;52.524;11.468;2024-03-02T05:12:09;31.30;;;17.00;;
32639;SDS011;19049;52.524;11.468;2024-03-02T05:14:41;32.33;;;16.80;;
32639;SDS011;19049;52.524;11.468;2024-03-02T05:17:06;32.00;;;17.80;;
32639;SDS011;19049;52.524;11.468;2024-03-02T05:19:32;28.60;;;16.43;;
32639;SDS011;19049;52.524;11.468;2024-03-02T05:21:58;32.67;;;18.77;;
32639;SDS011;19049;52.524;11.468;2024-03-02T05:24:23;30.60;;;17.03;;
32639;SDS011;19049;52.524;11.468;2024-03-02T05:26:52;31.33;;;17.77;;
32639;SDS011;19049;52.524;11.468;2024-03-02T05:29:17;30.07;;;17.43;;
32639;SDS011;19049;52.524;11.468;2024-03-02T05:31:43;28.90;;;16.73;;
32639;SDS011;19049;52.524;11.468;2024-03-02T05:34:09;30.30;;;18.13;;
32639;SDS011;19049;52.524;11.468;2024-03-02T05:36:35;36.13;;;21.10;;
32639;SDS011;19049;52.524;11.468;2024-03-02T05:39:00;35.60;;;20.10;;
32639;SDS011;19049;52.524;11.468;2024-03-02T05:41:27;33.40;;;20.20;;
32639;SDS011;19049;52.524;11.468;2024-03-02T05:43:53;33.93;;;19.53;;
32639;SDS011;19049;52.524;11.468;2024-03-02T05:46:18;34.00;;;19.57;;
32639;SDS011;19049;52.524;11.468;2024-03-02T05:48:44;31.33;;;18.83;;
32639;SDS011;19049;52.524;11.468;2024-03-02T05:51:09;31.80;;;18.27;;
32639;SDS011;19049;52.524;11.468;2024-03-02T05:53:35;34.30;;;19.67;;
32639;SDS011;19049;52.524;11.468;2024-03-02T05:56:03;30.17;;;17.97;;
32639;SDS011;19049;52.524;11.468;2024-03-02T05:58:30;31.60;;;17.70;;
32639;SDS011;19049;52.524;11.468;2024-03-02T06:01:14;33.63;;;19.43;;
32639;SDS011;19049;52.524;11.468;2024-03-02T06:03:40;33.07;;;18.90;;
32639;SDS011;19049;52.524;11.468;2024-03-02T06:06:06;32.23;;;18.90;;
32639;SDS011;19049;52.524;11.468;2024-03-02T06:08:31;34.30;;;19.83;;
32639;SDS011;19049;52.524;11.468;2024-03-02T06:10:57;33.27;;;20.63;;
32639;SDS011;19049;52.524;11.468;2024-03-02T06:13:24;38.63;;;23.10;;
32639;SDS011;19049;52.524;11.468;2024-03-02T06:15:51;38.30;;;20.97;;
32639;SDS011;19049;52.524;11.468;2024-03-02T06:18:17;40.10;;;22.83;;
32639;SDS011;19049;52.524;11.468;2024-03-02T06:20:42;36.57;;;21.57;;
32639;SDS011;19049;52.524;11.468;2024-03-02T06:23:08;35.73;;;21.40;;
32639;SDS011;19049;52.524;11.468;2024-03-02T06:25:34;34.60;;;21.50;;
32639;SDS011;19049;52.524;11.468;2024-03-02T06:27:59;44.10;;;22.83;;
32639;SDS011;19049;52.524;11.468;2024-03-02T06:30:25;42.43;;;22.90;;
32639;SDS011;19049;52.524;11.468;2024-03-02T06:32:51;41.57;;;23.57;;
32639;SDS011;19049;52.524;11.468;2024-03-02T06:35:16;39.97;;;21.67;;
32639;SDS011;19049;52.524;11.468;2024-03-02T06:37:42;37.97;;;21.53;;
32639;SDS011;19049;52.524;11.468;2024-03-02T06:40:08;39.07;;;23.70;;
32639;SDS011;19049;52.524;11.468;2024-03-02T06:42:34;34.93;;;19.83;;
32639;SDS011;19049;52.524;11.468;2024-03-02T06:45:00;31.97;;;18.80;;
32639;SDS011;19049;52.524;11.468;2024-03-02T06:47:26;35.13;;;20.40;;
32639;SDS011;19049;52.524;11.468;2024-03-02T06:49:51;38.83;;;21.33;;
32639;SDS011;19049;52.524;11.468;2024-03-02T06:52:18;39.70;;;23.13;;
32639;SDS011;19049;52.524;11.468;2024-03-02T06:54:43;37.10;;;23.13;;
32639;SDS011;19049;52.524;11.468;2024-03-02T06:57:09;33.27;;;19.47;;
32639;SDS011;19049;52.524;11.468;2024-03-02T06:59:35;34.10;;;21.30;;
32639;SDS011;19049;52.524;11.468;2024-03-02T07:02:00;33.80;;;19.80;;
32639;SDS011;19049;52.524;11.468;2024-03-02T07:04:26;32.97;;;19.77;;
32639;SDS011;19049;52.524;11.468;2024-03-02T07:06:52;29.97;;;17.67;;
32639;SDS011;19049;52.524;11.468;2024-03-02T07:09:18;39.07;;;20.87;;
32639;SDS011;19049;52.524;11.468;2024-03-02T07:11:47;33.90;;;20.97;;
32639;SDS011;19049;52.524;11.468;2024-03-02T07:14:13;31.57;;;18.03;;
32639;SDS011;19049;52.524;11.468;2024-03-02T07:16:39;31.60;;;18.97;;
32639;SDS011;19049;52.524;11.468;2024-03-02T07:19:05;28.97;;;18.13;;
32639;SDS011;19049;52.524;11.468;2024-03-02T07:21:31;30.93;;;19.87;;
32639;SDS011;19049;52.524;11.468;2024-03-02T07:23:58;28.97;;;17.83;;
32639;SDS011;19049;52.524;11.468;2024-03-02T07:26:24;34.10;;;20.73;;
32639;SDS011;19049;52.524;11.468;2024-03-02T07:28:50;31.07;;;19.50;;
32639;SDS011;19049;52.524;11.468;2024-03-02T07:31:16;35.73;;;21.17;;
32639;SDS011;19049;52.524;11.468;2024-03-02T07:33:45;33.70;;;19.80;;
32639;SDS011;19049;52.524;11.468;2024-03-02T07:36:13;35.47;;;21.83;;
32639;SDS011;19049;52.524;11.468;2024-03-02T07:38:39;39.90;;;22.63;;
32639;SDS011;19049;52.524;11.468;2024-03-02T07:41:05;42.43;;;24.30;;
32639;SDS011;19049;52.524;11.468;2024-03-02T07:43:31;41.07;;;24.23;;
32639;SDS011;19049;52.524;11.468;2024-03-02T07:45:58;35.67;;;21.43;;
32639;SDS011;19049;52.524;11.468;2024-03-02T07:48:24;32.40;;;19.13;;
32639;SDS011;19049;52.524;11.468;2024-03-02T07:50:50;37.90;;;23.47;;
32639;SDS011;19049;52.524;11.468;2024-03-02T07:53:16;32.00;;;20.23;;
32639;SDS011;19049;52.524;11.468;2024-03-02T07:55:41;32.60;;;20.77;;
32639;SDS011;19049;52.524;11.468;2024-03-02T07:58:07;29.83;;;18.87;;
32639;SDS011;19049;52.524;11.468;2024-03-02T08:00:33;32.97;;;20.80;;
32639;SDS011;19049;52.524;11.468;2024-03-02T08:03:00;31.53;;;19.23;;
32639;SDS011;19049;52.524;11.468;2024-03-02T08:05:26;33.93;;;20.87;;
32639;SDS011;19049;52.524;11.468;2024-03-02T08:07:52;34.77;;;21.30;;
32639;SDS011;19049;52.524;11.468;2024-03-02T08:10:18;31.70;;;20.30;;
32639;SDS011;19049;52.524;11.468;2024-03-02T08:12:44;35.30;;;22.17;;
32639;SDS011;19049;52.524;11.468;2024-03-02T08:15:09;32.07;;;20.17;;
32639;SDS011;19049;52.524;11.468;2024-03-02T08:17:35;34.07;;;22.67;;
32639;SDS011;19049;52.524;11.468;2024-03-02T08:20:01;32.27;;;19.60;;
32639;SDS011;19049;52.524;11.468;2024-03-02T08:22:27;33.20;;;20.43;;
32639;SDS011;19049;52.524;11.468;2024-03-02T08:24:53;35.50;;;20.33;;
32639;SDS011;19049;52.524;11.468;2024-03-02T08:27:19;31.37;;;19.50;;
32639;SDS011;19049;52.524;11.468;2024-03-02T08:29:45;32.33;;;19.80;;
32639;SDS011;19049;52.524;11.468;2024-03-02T08:32:10;28.57;;;18.27;;
32639;SDS011;19049;52.524;11.468;2024-03-02T08:34:36;29.00;;;19.30;;
32639;SDS011;19049;52.524;11.468;2024-03-02T08:37:02;30.47;;;20.13;;
32639;SDS011;19049;52.524;11.468;2024-03-02T08:39:28;29.17;;;19.03;;
32639;SDS011;19049;52.524;11.468;2024-03-02T08:41:54;30.07;;;19.87;;
32639;SDS011;19049;52.524;11.468;2024-03-02T08:44:20;28.73;;;17.30;;
32639;SDS011;19049;52.524;11.468;2024-03-02T08:46:45;25.77;;;17.00;;
32639;SDS011;19049;52.524;11.468;2024-03-02T08:49:12;23.73;;;15.70;;
32639;SDS011;19049;52.524;11.468;2024-03-02T08:51:38;29.97;;;19.20;;
32639;SDS011;19049;52.524;11.468;2024-03-02T08:54:03;29.03;;;18.57;;
32639;SDS011;19049;52.524;11.468;2024-03-02T08:56:30;27.13;;;18.37;;
32639;SDS011;19049;52.524;11.468;2024-03-02T08:58:56;23.00;;;15.97;;
32639;SDS011;19049;52.524;11.468;2024-03-02T09:01:22;22.67;;;15.03;;
32639;SDS011;19049;52.524;11.468;2024-03-02T09:03:48;25.57;;;16.53;;
32639;SDS011;19049;52.524;11.468;2024-03-02T09:06:16;24.47;;;16.03;;
32639;SDS011;19049;52.524;11.468;2024-03-02T09:08:42;23.90;;;15.53;;
32639;SDS011;19049;52.524;11.468;2024-03-02T09:11:08;23.03;;;14.60;;
32639;SDS011;19049;52.524;11.468;2024-03-02T09:13:35;23.90;;;16.07;;
32639;SDS011;19049;52.524;11.468;2024-03-02T09:16:02;23.03;;;15.57;;
32639;SDS011;19049;52.524;11.468;2024-03-02T09:18:29;21.20;;;14.93;;
32639;SDS011;19049;52.524;11.468;2024-03-02T09:20:54;24.93;;;17.13;;
32639;SDS011;19049;52.524;11.468;2024-03-02T09:23:20;25.27;;;17.37;;
32639;SDS011;19049;52.524;11.468;2024-03-02T09:25:46;22.40;;;15.23;;
32639;SDS011;19049;52.524;11.468;2024-03-02T09:28:12;24.60;;;16.37;;
32639;SDS011;19049;52.524;11.468;2024-03-02T09:30:37;23.43;;;15.63;;
32639;SDS011;19049;52.524;11.468;2024-03-02T09:33:03;23.57;;;16.13;;
32639;SDS011;19049;52.524;11.468;2024-03-02T09:35:29;23.23;;;16.30;;
32639;SDS011;19049;52.524;11.468;2024-03-02T09:37:55;23.77;;;15.50;;
32639;SDS011;19049;52.524;11.468;2024-03-02T09:40:24;22.13;;;15.00;;
32639;SDS011;19049;52.524;11.468;2024-03-02T09:42:50;24.67;;;15.80;;
32639;SDS011;19049;52.524;11.468;2024-03-02T09:45:24;21.00;;;15.00;;
32639;SDS011;19049;52.524;11.468;2024-03-02T09:47:50;23.30;;;14.37;;
32639;SDS011;19049;52.524;11.468;2024-03-02T09:50:16;19.53;;;13.40;;
32639;SDS011;19049;52.524;11.468;2024-03-02T09:52:42;19.17;;;13.43;;
32639;SDS011;19049;52.524;11.468;2024-03-02T09:55:09;17.87;;;13.07;;
32639;SDS011;19049;52.524;11.468;2024-03-02T09:57:36;20.87;;;14.63;;
32639;SDS011;19049;52.524;11.468;2024-03-02T10:00:08;21.27;;;14.57;;
32639;SDS011;19049;52.524;11.468;2024-03-02T10:02:39;18.43;;;13.87;;
32639;SDS011;19049;52.524;11.468;2024-03-02T10:05:08;22.27;;;14.07;;
32639;SDS011;19049;52.524;11.468;2024-03-02T10:07:34;23.17;;;14.63;;
32639;SDS011;19049;52.524;11.468;2024-03-02T10:10:12;21.93;;;15.20;;
32639;SDS011;19049;52.524;11.468;2024-03-02T10:12:39;18.50;;;13.57;;
32639;SDS011;19049;52.524;11.468;2024-03-02T10:15:04;19.60;;;13.87;;
32639;SDS011;19049;52.524;11.468;2024-03-02T10:17:31;21.13;;;14.70;;
32639;SDS011;19049;52.524;11.468;2024-03-02T10:19:56;19.60;;;14.07;;
32639;SDS011;19049;52.524;11.468;2024-03-02T10:22:22;20.13;;;14.27;;
32639;SDS011;19049;52.524;11.468;2024-03-02T10:24:48;21.73;;;15.33;;
32639;SDS011;19049;52.524;11.468;2024-03-02T10:27:17;18.57;;;12.97;;
32639;SDS011;19049;52.524;11.468;2024-03-02T10:29:51;17.80;;;13.43;;
32639;SDS011;19049;52.524;11.468;2024-03-02T10:32:16;18.33;;;14.07;;
32639;SDS011;19049;52.524;11.468;2024-03-02T10:34:43;17.93;;;12.87;;
32639;SDS011;19049;52.524;11.468;2024-03-02T10:37:11;19.93;;;13.43;;
32639;SDS011;19049;52.524;11.468;2024-03-02T10:39:37;23.27;;;15.57;;
32639;SDS011;19049;52.524;11.468;2024-03-02T10:42:04;20.00;;;14.47;;
32639;SDS011;19049;52.524;11.468;2024-03-02T10:44:31;20.83;;;14.47;;
32639;SDS011;19049;52.524;11.468;2024-03-02T10:46:59;15.13;;;12.40;;
32639;SDS011;19049;52.524;11.468;2024-03-02T10:49:31;17.97;;;13.87;;
32639;SDS011;19049;52.524;11.468;2024-03-02T10:52:01;19.17;;;14.13;;
32639;SDS011;19049;52.524;11.468;2024-03-02T10:54:27;18.33;;;13.03;;
32639;SDS011;19049;52.524;11.468;2024-03-02T10:57:00;18.90;;;12.87;;
32639;SDS011;19049;52.524;11.468;2024-03-02T10:59:34;18.57;;;13.10;;
32639;SDS011;19049;52.524;11.468;2024-03-02T11:02:02;18.10;;;12.83;;
32639;SDS011;19049;52.524;11.468;2024-03-02T11:04:29;17.20;;;12.53;;
32639;SDS011;19049;52.524;11.468;2024-03-02T11:07:00;17.57;;;13.60;;
32639;SDS011;19049;52.524;11.468;2024-03-02T11:09:33;18.67;;;13.23;;
32639;SDS011;19049;52.524;11.468;2024-03-02T11:12:05;18.67;;;13.53;;
32639;SDS011;19049;52.524;11.468;2024-03-02T11:14:37;17.47;;;12.93;;
32639;SDS011;19049;52.524;11.468;2024-03-02T11:17:08;16.63;;;12.73;;
32639;SDS011;19049;52.524;11.468;2024-03-02T11:19:35;18.90;;;12.27;;
32639;SDS011;19049;52.524;11.468;2024-03-02T11:22:03;18.93;;;13.30;;
32639;SDS011;19049;52.524;11.468;2024-03-02T11:24:30;17.93;;;12.20;;
32639;SDS011;19049;52.524;11.468;2024-03-02T11:27:00;19.80;;;12.93;;
32639;SDS011;19049;52.524;11.468;2024-03-02T11:34:50;15.00;;;10.43;;
32639;SDS011;19049;52.524;11.468;2024-03-02T11:37:16;12.27;;;10.00;;
32639;SDS011;19049;52.524;11.468;2024-03-02T11:39:48;17.23;;;12.40;;
32639;SDS011;19049;52.524;11.468;2024-03-02T11:42:15;15.80;;;11.83;;
32639;SDS011;19049;52.524;11.468;2024-03-02T11:44:45;18.63;;;12.83;;
32639;SDS011;19049;52.524;11.468;2024-03-02T11:47:12;17.83;;;12.80;;
32639;SDS011;19049;52.524;11.468;2024-03-02T11:49:48;17.63;;;12.97;;
32639;SDS011;19049;52.524;11.468;2024-03-02T11:52:16;14.37;;;11.33;;
32639;SDS011;19049;52.524;11.468;2024-03-02T11:54:44;17.50;;;12.97;;
32639;SDS011;19049;52.524;11.468;2024-03-02T11:57:20;18.70;;;12.47;;
32639;SDS011;19049;52.524;11.468;2024-03-02T11:59:47;15.87;;;11.57;;
32639;SDS011;19049;52.524;11.468;2024-03-02T12:02:19;16.07;;;12.27;;
32639;SDS011;19049;52.524;11.468;2024-03-02T12:04:46;16.37;;;12.00;;
32639;SDS011;19049;52.524;11.468;2024-03-02T12:07:18;16.10;;;12.20;;
32639;SDS011;19049;52.524;11.468;2024-03-02T12:09:45;15.17;;;11.93;;
32639;SDS011;19049;52.524;11.468;2024-03-02T12:12:11;15.47;;;11.07;;
32639;SDS011;19049;52.524;11.468;2024-03-02T12:14:40;17.43;;;11.63;;
32639;SDS011;19049;52.524;11.468;2024-03-02T12:17:14;14.10;;;11.13;;
32639;SDS011;19049;52.524;11.468;2024-03-02T12:19:40;13.53;;;10.37;;
32639;SDS011;19049;52.524;11.468;2024-03-02T12:22:05;14.53;;;11.40;;
32639;SDS011;19049;52.524;11.468;2024-03-02T12:24:31;12.87;;;10.17;;
32639;SDS011;19049;52.524;11.468;2024-03-02T12:26:57;15.63;;;11.87;;
32639;SDS011;19049;52.524;11.468;2024-03-02T12:29:23;15.57;;;11.63;;
32639;SDS011;19049;52.524;11.468;2024-03-02T12:31:51;12.30;;;9.90;;
32639;SDS011;19049;52.524;11.468;2024-03-02T12:34:18;12.33;;;10.07;;
32639;SDS011;19049;52.524;11.468;2024-03-02T12:36:45;13.83;;;9.77;;
32639;SDS011;19049;52.524;11.468;2024-03-02T12:39:14;13.20;;;9.37;;
32639;SDS011;19049;52.524;11.468;2024-03-02T12:41:41;11.97;;;8.13;;
32639;SDS011;19049;52.524;11.468;2024-03-02T12:44:07;12.70;;;9.53;;
32639;SDS011;19049;52.524;11.468;2024-03-02T12:46:33;11.87;;;8.43;;
32639;SDS011;19049;52.524;11.468;2024-03-02T12:49:04;12.70;;;8.97;;
32639;SDS011;19049;52.524;11.468;2024-03-02T12:51:32;9.47;;;7.93;;
32639;SDS011;19049;52.524;11.468;2024-03-02T12:53:58;12.43;;;9.20;;
32639;SDS011;19049;52.524;11.468;2024-03-02T12:56:25;11.57;;;9.27;;
32639;SDS011;19049;52.524;11.468;2024-03-02T12:58:54;15.27;;;10.10;;
32639;SDS011;19049;52.524;11.468;2024-03-02T13:01:20;11.20;;;8.63;;
32639;SDS011;19049;52.524;11.468;2024-03-02T13:03:49;14.77;;;10.57;;
32639;SDS011;19049;52.524;11.468;2024-03-02T13:06:16;11.97;;;9.20;;
32639;SDS011;19049;52.524;11.468;2024-03-02T13:08:42;10.93;;;9.17;;
32639;SDS011;19049;52.524;11.468;2024-03-02T13:11:08;13.33;;;8.77;;
32639;SDS011;19049;52.524;11.468;2024-03-02T13:13:34;10.90;;;8.37;;
32639;SDS011;19049;52.524;11.468;2024-03-02T13:16:00;10.17;;;8.03;;
32639;SDS011;19049;52.524;11.468;2024-03-02T13:18:26;11.30;;;8.90;;
32639;SDS011;19049;52.524;11.468;2024-03-02T13:20:53;12.97;;;9.27;;
32639;SDS011;19049;52.524;11.468;2024-03-02T13:23:21;11.20;;;8.10;;
32639;SDS011;19049;52.524;11.468;2024-03-02T13:25:46;10.70;;;7.10;;
32639;SDS011;19049;52.524;11.468;2024-03-02T13:28:12;8.33;;;6.33;;
32639;SDS011;19049;52.524;11.468;2024-03-02T13:30:38;10.43;;;8.00;;
32639;SDS011;19049;52.524;11.468;2024-03-02T13:33:04;9.00;;;6.73;;
32639;SDS011;19049;52.524;11.468;2024-03-02T13:35:30;8.40;;;6.87;;
32639;SDS011;19049;52.524;11.468;2024-03-02T13:37:55;8.47;;;6.87;;
32639;SDS011;19049;52.524;11.468;2024-03-02T13:40:21;8.77;;;6.93;;
32639;SDS011;19049;52.524;11.468;2024-03-02T13:42:48;7.50;;;5.80;;
32639;SDS011;19049;52.524;11.468;2024-03-02T13:45:15;8.00;;;6.67;;
32639;SDS011;19049;52.524;11.468;2024-03-02T13:47:42;9.20;;;7.40;;
32639;SDS011;19049;52.524;11.468;2024-03-02T13:50:08;10.47;;;7.77;;
32639;SDS011;19049;52.524;11.468;2024-03-02T13:52:33;10.67;;;8.03;;
32639;SDS011;19049;52.524;11.468;2024-03-02T13:54:59;10.97;;;7.90;;
32639;SDS011;19049;52.524;11.468;2024-03-02T13:57:25;11.67;;;8.47;;
32639;SDS011;19049;52.524;11.468;2024-03-02T13:59:50;12.03;;;8.40;;
32639;SDS011;19049;52.524;11.468;2024-03-02T14:02:17;12.07;;;8.97;;
32639;SDS011;19049;52.524;11.468;2024-03-02T14:04:43;11.43;;;8.83;;
32639;SDS011;19049;52.524;11.468;2024-03-02T14:07:09;11.73;;;9.03;;
32639;SDS011;19049;52.524;11.468;2024-03-02T14:09:37;11.47;;;8.20;;
32639;SDS011;19049;52.524;11.468;2024-03-02T14:12:02;9.73;;;7.57;;
32639;SDS011;19049;52.524;11.468;2024-03-02T14:14:29;9.70;;;7.33;;
32639;SDS011;19049;52.524;11.468;2024-03-02T14:16:55;9.50;;;7.17;;